createdAt,value
2022-09-09T03:59:04.236Z,16.75
2022-09-09T04:02:28.330Z,16.76
2022-09-09T04:09:20.598Z,16.68
2022-09-09T04:12:44.905Z,16.67
2022-09-09T04:16:02.330Z,16.65
2022-09-09T04:19:14.489Z,16.62
2022-09-09T04:22:26.986Z,16.60
2022-09-09T04:25:38.997Z,16.57
2022-09-09T04:28:59.071Z,16.58
2022-09-09T04:32:11.382Z,16.57
2022-09-09T04:35:25.026Z,16.57
2022-09-09T04:38:36.883Z,16.55
2022-09-09T04:41:49.040Z,16.58
2022-09-09T04:45:00.982Z,16.59
2022-09-09T04:48:25.481Z,16.61
2022-09-09T04:51:38.871Z,16.64
2022-09-09T04:54:54.594Z,16.73
2022-09-09T04:58:10.140Z,16.80
2022-09-09T05:01:25.672Z,16.82
2022-09-09T05:04:41.763Z,16.88
2022-09-09T05:08:05.400Z,16.93
2022-09-09T05:11:53.908Z,17.05
2022-09-09T05:15:16.100Z,17.16
2022-09-09T05:18:41.617Z,17.15
2022-09-09T05:25:42.685Z,17.19
2022-09-09T05:47:39.813Z,17.07
2022-09-09T05:51:40.613Z,17.08
2022-09-09T06:06:31.177Z,19.80
2022-09-09T06:21:27.114Z,21.26
2022-09-09T06:32:33.871Z,22.15
2022-09-09T06:39:39.132Z,22.49
2022-09-09T06:46:39.164Z,22.88
2022-09-09T06:50:06.223Z,23.22
2022-09-09T06:53:20.279Z,23.70
2022-09-09T06:56:42.919Z,23.65
2022-09-09T06:59:56.451Z,23.77
2022-09-09T07:03:08.902Z,23.86
2022-09-09T07:06:24.862Z,24.30
2022-09-09T07:09:37.073Z,24.07
2022-09-09T07:12:48.742Z,24.25
2022-09-09T07:16:00.674Z,24.21
2022-09-09T07:19:13.713Z,24.59
2022-09-09T07:22:26.136Z,25.07
2022-09-09T07:25:37.709Z,24.63
2022-09-09T07:28:50.145Z,25.07
2022-09-09T07:32:03.576Z,25.63
2022-09-09T07:35:17.468Z,25.31
2022-09-09T07:38:30.269Z,25.35
2022-09-09T07:41:45.021Z,24.81
2022-09-09T07:44:57.996Z,25.14
2022-09-09T07:48:12.652Z,25.59
2022-09-09T07:51:27.061Z,25.99
2022-09-09T07:54:39.019Z,26.21
2022-09-09T07:57:51.647Z,26.36
2022-09-09T08:01:04.138Z,26.49
2022-09-09T08:04:19.654Z,26.69
2022-09-09T08:07:32.005Z,27.09
2022-09-09T08:10:43.713Z,27.24
2022-09-09T08:14:01.635Z,27.65
2022-09-09T08:17:11.759Z,28.31
2022-09-09T08:20:24.320Z,28.24
2022-09-09T08:23:37.001Z,28.37
2022-09-09T08:26:52.375Z,27.73
2022-09-09T08:30:06.041Z,27.91
2022-09-09T08:33:19.086Z,26.69
2022-09-09T08:36:34.378Z,26.59
2022-09-09T08:39:46.507Z,26.69
2022-09-09T08:43:01.401Z,27.17
2022-09-09T08:46:19.189Z,27.19
2022-09-09T08:49:50.887Z,27.19
2022-09-09T08:53:08.833Z,28.05
2022-09-09T08:56:26.880Z,27.66
2022-09-09T08:59:42.145Z,26.67
2022-09-09T09:03:02.293Z,25.92
2022-09-09T09:06:23.776Z,25.85
2022-09-09T09:09:41.174Z,25.67
2022-09-09T09:12:54.411Z,27.33
2022-09-09T09:16:12.271Z,27.97
2022-09-09T09:19:27.303Z,26.81
2022-09-09T09:22:45.473Z,25.96
2022-09-09T09:26:02.996Z,25.35
2022-09-09T09:29:18.024Z,25.11
2022-09-09T09:32:31.689Z,24.67
2022-09-09T09:35:44.755Z,24.43
2022-09-09T09:42:27.775Z,25.28
2022-09-09T09:46:06.829Z,25.60
2022-09-09T09:49:10.364Z,25.21
2022-09-09T09:52:27.180Z,25.06
2022-09-09T09:55:44.282Z,25.20
2022-09-09T09:59:03.667Z,26.17
2022-09-09T10:02:27.514Z,26.94
2022-09-09T10:05:43.198Z,27.86
2022-09-09T10:08:55.658Z,28.07
2022-09-09T10:12:13.873Z,29.02
2022-09-09T10:15:40.631Z,28.15
2022-09-09T10:19:05.058Z,27.37
2022-09-09T10:22:36.200Z,25.93
2022-09-09T10:26:10.622Z,24.90
2022-09-09T10:29:50.200Z,24.26
2022-09-09T10:33:14.254Z,24.02
2022-09-09T10:36:30.773Z,24.83
2022-09-09T10:39:45.847Z,23.90
2022-09-09T10:42:59.457Z,23.61
2022-09-09T10:46:19.622Z,23.40
2022-09-09T10:49:44.298Z,23.63
2022-09-09T10:53:03.315Z,24.72
2022-09-09T10:56:34.703Z,25.22
2022-09-09T10:59:54.099Z,25.45
2022-09-09T11:03:09.750Z,26.19
2022-09-09T11:06:25.758Z,26.66
2022-09-09T11:09:43.873Z,27.23
2022-09-09T11:13:02.264Z,27.41
2022-09-09T11:16:24.854Z,26.72
2022-09-09T11:19:41.442Z,25.94
2022-09-09T11:22:55.718Z,26.11
2022-09-09T11:26:11.096Z,26.16
2022-09-09T11:30:05.411Z,26.64
2022-09-09T11:33:35.289Z,26.78
2022-09-09T11:37:09.869Z,26.56
2022-09-09T11:40:31.445Z,27.11
2022-09-09T11:43:48.337Z,27.73
2022-09-09T11:47:00.315Z,28.36
2022-09-09T11:50:37.484Z,27.39
2022-09-09T11:54:02.331Z,27.82
2022-09-09T11:57:29.650Z,28.28
2022-09-09T12:00:45.418Z,28.20
2022-09-09T12:04:04.459Z,27.90
2022-09-09T12:07:40.803Z,28.51
2022-09-09T12:11:04.092Z,28.70
2022-09-09T12:14:31.424Z,28.36
2022-09-09T12:17:48.232Z,28.13
2022-09-09T12:21:08.762Z,27.92
2022-09-09T12:24:25.508Z,27.84
2022-09-09T12:27:44.003Z,27.76
2022-09-09T12:31:01.461Z,27.84
2022-09-09T12:34:22.472Z,28.25
2022-09-09T12:37:39.622Z,28.32
2022-09-09T12:41:01.557Z,28.41
2022-09-09T12:44:16.495Z,28.20
2022-09-09T12:47:34.262Z,27.86
2022-09-09T12:50:50.856Z,27.75
2022-09-09T12:54:04.354Z,27.41
2022-09-09T12:57:20.578Z,27.30
2022-09-09T13:00:33.374Z,27.21
2022-09-09T13:03:50.494Z,27.14
2022-09-09T13:07:13.048Z,27.07
2022-09-09T13:10:36.681Z,27.06
2022-09-09T13:13:48.733Z,26.98
2022-09-09T13:17:10.150Z,26.78
2022-09-09T13:20:27.724Z,26.78
2022-09-09T13:23:42.424Z,26.76
2022-09-09T13:27:02.926Z,26.70
2022-09-09T13:30:32.391Z,26.36
2022-09-09T13:33:45.291Z,26.76
2022-09-09T13:36:59.836Z,26.64
2022-09-09T13:40:22.601Z,26.57
2022-09-09T13:43:39.419Z,26.69
2022-09-09T13:46:51.777Z,26.59
2022-09-09T13:50:03.935Z,26.77
2022-09-09T13:53:16.927Z,26.77
2022-09-09T13:56:29.266Z,26.57
2022-09-09T14:00:03.730Z,26.46
2022-09-09T14:02:56.033Z,26.43
2022-09-09T14:06:08.235Z,25.98
2022-09-09T14:09:24.244Z,25.84
2022-09-09T14:12:36.640Z,25.71
2022-09-09T14:15:48.418Z,25.47
2022-09-09T14:19:02.107Z,25.44
2022-09-09T14:22:13.727Z,25.33
2022-09-09T14:25:25.267Z,25.31
2022-09-09T14:28:54.910Z,25.20
2022-09-09T14:31:52.358Z,25.33
2022-09-09T14:35:13.699Z,25.39
2022-09-09T14:38:25.592Z,25.18
2022-09-09T14:41:37.362Z,25.23
2022-09-09T14:44:49.316Z,25.08
2022-09-09T14:48:01.625Z,24.86
2022-09-09T14:51:20.531Z,24.84
2022-09-09T14:54:33.116Z,24.89
2022-09-09T14:57:44.996Z,24.80
2022-09-09T15:00:56.751Z,24.64
2022-09-09T15:04:11.856Z,24.64
2022-09-09T15:07:24.564Z,24.78
2022-09-09T15:10:36.641Z,24.86
2022-09-09T15:13:50.157Z,24.73
2022-09-09T15:17:02.141Z,24.77
2022-09-09T15:20:17.797Z,24.70
2022-09-09T15:23:29.618Z,24.66
2022-09-09T15:26:42.287Z,24.56
2022-09-09T15:29:54.261Z,24.55
2022-09-09T15:33:09.638Z,24.35
2022-09-09T15:36:27.221Z,24.36
2022-09-09T15:39:39.166Z,24.36
2022-09-09T15:42:51.823Z,24.23
2022-09-09T15:46:14.036Z,24.15
2022-09-09T15:49:28.568Z,23.95
2022-09-09T15:52:40.442Z,23.96
2022-09-09T15:55:54.767Z,23.91
2022-09-09T15:59:07.766Z,23.90
2022-09-09T16:02:19.674Z,23.89
2022-09-09T16:05:31.429Z,23.78
2022-09-09T16:08:46.571Z,23.67
2022-09-09T16:11:59.954Z,23.57
2022-09-09T16:15:14.086Z,23.54
2022-09-09T16:18:26.046Z,23.38
2022-09-09T16:21:41.306Z,23.18
2022-09-09T16:24:53.064Z,23.07
2022-09-09T16:28:04.809Z,22.91
2022-09-09T16:31:19.591Z,22.76
2022-09-09T16:34:31.439Z,22.55
2022-09-09T16:37:44.050Z,22.36
2022-09-09T16:40:55.691Z,22.26
2022-09-09T16:44:10.522Z,22.28
2022-09-09T16:47:25.448Z,22.20
2022-09-09T16:50:39.274Z,22.01
2022-09-09T16:53:51.481Z,22.01
2022-09-09T16:57:04.026Z,21.82
2022-09-09T17:00:18.032Z,21.81
2022-09-09T17:03:29.801Z,21.78
2022-09-09T17:06:42.597Z,21.46
2022-09-09T17:09:55.346Z,21.33
2022-09-09T17:13:07.441Z,21.27
2022-09-09T17:19:22.367Z,20.99
2022-09-09T17:22:36.012Z,20.81
2022-09-09T17:38:15.295Z,20.98
2022-09-09T17:44:27.558Z,20.94
2022-09-09T17:47:41.054Z,20.85
2022-09-09T17:50:52.905Z,20.75
2022-09-09T17:54:15.272Z,20.73
2022-09-09T17:57:27.194Z,20.59
2022-09-09T18:00:39.044Z,20.37
2022-09-09T18:03:52.749Z,20.21
2022-09-09T18:07:05.304Z,20.14
2022-09-09T18:10:22.631Z,20.14
2022-09-09T18:35:16.000Z,20.36
2022-09-09T18:52:31.955Z,19.74
2022-09-09T18:55:43.937Z,19.60
2022-09-09T18:59:07.591Z,19.48
2022-09-09T19:02:20.832Z,19.37
2022-09-09T19:05:32.906Z,19.47
2022-09-09T19:08:46.703Z,19.60
2022-09-09T19:20:58.893Z,19.49
2022-09-09T19:24:16.031Z,19.56
2022-09-09T19:27:27.969Z,19.51
2022-09-09T19:38:03.592Z,19.34
2022-09-09T19:41:19.284Z,19.12
2022-09-09T19:44:31.208Z,18.95
2022-09-09T19:47:56.469Z,18.85
2022-09-09T19:51:12.272Z,18.81
2022-09-09T19:54:24.064Z,18.77
2022-09-09T19:57:43.953Z,18.71
2022-09-09T20:00:55.847Z,18.65
2022-09-09T20:04:11.025Z,18.59
2022-09-09T20:07:24.194Z,18.56
2022-09-09T20:14:26.458Z,18.48
2022-09-09T20:21:21.837Z,18.42
2022-09-09T20:24:33.598Z,18.28
2022-09-09T20:27:45.200Z,18.37
2022-09-09T20:30:57.326Z,18.50
2022-09-09T20:34:10.632Z,18.58
2022-09-09T20:37:24.103Z,18.57
2022-09-09T20:44:35.264Z,18.43
2022-09-09T20:47:48.123Z,18.48
2022-09-09T20:51:12.757Z,18.45
2022-09-09T20:54:29.772Z,18.43
2022-09-09T20:57:42.025Z,18.39
2022-09-09T21:00:53.758Z,18.39
2022-09-09T21:07:46.427Z,18.33
2022-09-09T21:10:58.348Z,18.35
2022-09-09T21:14:10.665Z,18.36
2022-09-09T21:17:22.633Z,18.32
2022-09-09T21:20:35.469Z,18.28
2022-09-09T21:23:47.680Z,18.18
2022-09-09T21:27:00.189Z,18.12
2022-09-09T21:30:14.685Z,18.09
2022-09-09T21:33:29.821Z,18.03
2022-09-09T21:36:41.847Z,18.04
2022-09-09T21:39:53.719Z,18.04
2022-09-09T21:46:46.970Z,18.00
2022-09-09T21:49:59.485Z,17.99
2022-09-09T21:53:13.158Z,17.94
2022-09-09T21:56:26.825Z,17.96
2022-09-09T21:59:38.721Z,17.97
2022-09-09T22:02:51.032Z,17.98
2022-09-09T22:06:05.775Z,17.95
2022-09-09T22:09:45.301Z,17.93
2022-09-09T22:13:05.910Z,17.96
2022-09-09T22:16:49.516Z,18.00
2022-09-09T22:20:01.276Z,17.97
2022-09-09T22:23:15.067Z,18.00
2022-09-09T22:26:29.654Z,17.78
2022-09-09T22:29:43.657Z,17.83
2022-09-09T22:32:57.943Z,17.81
2022-09-09T22:36:10.992Z,17.85
2022-09-09T22:39:22.652Z,17.80
2022-09-09T22:58:04.300Z,17.64
2022-09-09T23:01:21.014Z,17.67
2022-09-09T23:04:33.105Z,17.57
2022-09-09T23:11:38.196Z,17.58
2022-09-09T23:14:51.201Z,17.65
2022-09-09T23:18:12.056Z,17.61
2022-09-09T23:21:27.492Z,17.53
2022-09-09T23:24:46.417Z,17.40
2022-09-09T23:28:07.628Z,17.38
2022-09-09T23:31:38.526Z,17.35
2022-09-09T23:34:56.713Z,17.32
2022-09-09T23:38:19.225Z,17.31
2022-09-09T23:41:31.027Z,17.22
2022-09-09T23:44:55.420Z,17.39
2022-09-09T23:51:49.671Z,17.22
2022-09-09T23:58:44.017Z,17.17
